createdAt,value
2019-04-12T00:01:22.039Z,87.70
2019-04-12T00:03:51.350Z,88.80
2019-04-12T00:06:20.728Z,87.70
2019-04-12T00:08:49.987Z,88.50
2019-04-12T00:11:19.250Z,88.90
2019-04-12T00:13:48.491Z,89.00
2019-04-12T00:16:17.741Z,88.90
2019-04-12T00:18:46.988Z,87.80
2019-04-12T00:21:16.208Z,88.10
2019-04-12T00:23:45.736Z,86.30
2019-04-12T00:26:35.091Z,86.50
2019-04-12T00:29:04.467Z,85.90
2019-04-12T00:31:33.693Z,85.80
2019-04-12T00:34:02.961Z,84.90
2019-04-12T00:36:32.185Z,84.30
2019-04-12T00:39:01.437Z,85.00
2019-04-12T00:41:32.557Z,85.30
2019-04-12T00:44:02.536Z,85.70
2019-04-12T00:46:35.132Z,86.30
2019-04-12T00:49:07.135Z,86.40
2019-04-12T00:51:37.360Z,86.20
2019-04-12T00:54:26.066Z,85.60
2019-04-12T00:56:55.309Z,85.30
2019-04-12T00:59:24.555Z,84.60
2019-04-12T01:01:57.846Z,84.30
2019-04-12T01:04:34.711Z,84.20
2019-04-12T01:07:04.141Z,83.80
2019-04-12T01:09:53.332Z,83.50
2019-04-12T01:12:25.925Z,84.20
2019-04-12T01:14:56.130Z,83.50
2019-04-12T01:17:25.309Z,83.80
2019-04-12T01:19:54.776Z,84.30
2019-04-12T01:22:24.650Z,82.40
2019-04-12T01:24:57.569Z,80.50
2019-04-12T01:27:24.818Z,83.20
2019-04-12T01:30:14.526Z,79.60
2019-04-12T01:32:43.766Z,78.70
2019-04-12T01:35:12.992Z,78.50
2019-04-12T01:38:01.559Z,77.90
2019-04-12T01:40:30.885Z,78.10
2019-04-12T01:43:00.135Z,78.30
2019-04-12T01:45:48.747Z,79.70
2019-04-12T01:48:37.331Z,80.50
2019-04-12T01:51:06.587Z,80.90
2019-04-12T01:53:35.821Z,81.70
2019-04-12T01:56:05.121Z,81.50
2019-04-12T01:58:34.372Z,82.40
2019-04-12T02:01:03.672Z,81.40
2019-04-12T02:03:32.884Z,81.60
2019-04-12T02:06:02.136Z,81.40
2019-04-12T02:08:50.722Z,82.80
2019-04-12T02:11:20.015Z,83.60
2019-04-12T02:13:49.334Z,83.60
2019-04-12T02:16:21.544Z,83.50
2019-04-12T02:18:50.781Z,84.40
2019-04-12T02:21:39.359Z,83.70
2019-04-12T02:24:08.611Z,82.00
2019-04-12T02:26:37.936Z,82.20
2019-04-12T02:29:07.311Z,82.30
2019-04-12T02:31:47.428Z,81.80
2019-04-12T02:34:16.731Z,82.70
2019-04-12T02:36:46.059Z,81.60
2019-04-12T02:39:15.347Z,80.30
2019-04-12T02:41:46.054Z,80.50
2019-04-12T02:44:17.498Z,79.40
2019-04-12T02:46:56.096Z,79.60
2019-04-12T02:49:47.496Z,80.40
2019-04-12T02:52:23.954Z,80.60
2019-04-12T02:54:55.386Z,80.80
2019-04-12T02:57:26.857Z,81.20
2019-04-12T03:00:26.139Z,81.40
2019-04-12T03:02:56.540Z,81.60
2019-04-12T03:05:25.859Z,81.70
2019-04-12T03:07:55.240Z,82.10
2019-04-12T03:10:25.024Z,82.50
2019-04-12T03:12:54.890Z,82.80
2019-04-12T03:15:24.295Z,82.70
2019-04-12T03:17:54.215Z,82.80
2019-04-12T03:20:23.890Z,82.80
2019-04-12T03:22:53.672Z,83.10
2019-04-12T03:25:23.566Z,83.20
2019-04-12T03:27:53.360Z,83.00
2019-04-12T03:30:22.719Z,83.40
2019-04-12T03:32:52.073Z,83.00
2019-04-12T03:35:21.607Z,83.10
2019-04-12T03:37:53.655Z,82.70
2019-04-12T03:40:42.369Z,83.30
2019-04-12T03:43:11.696Z,82.70
2019-04-12T03:46:00.329Z,82.80
2019-04-12T03:48:29.815Z,83.10
2019-04-12T03:50:59.806Z,82.90
2019-04-12T03:53:29.135Z,83.00
2019-04-12T03:56:08.250Z,83.20
2019-04-12T03:58:49.189Z,82.90
2019-04-12T04:01:18.589Z,83.00
2019-04-12T04:03:48.305Z,83.80
2019-04-12T04:06:18.016Z,84.30
2019-04-12T04:08:47.383Z,84.40
2019-04-12T04:11:36.227Z,85.10
2019-04-12T04:14:05.670Z,85.60
2019-04-12T04:16:38.667Z,85.80
2019-04-12T04:19:09.599Z,86.60
2019-04-12T04:21:41.107Z,86.50
2019-04-12T04:24:12.249Z,87.20
2019-04-12T04:26:55.416Z,87.00
2019-04-12T04:29:44.942Z,87.10
2019-04-12T04:32:19.094Z,86.60
2019-04-12T04:34:48.687Z,86.40
2019-04-12T04:37:20.135Z,85.60
2019-04-12T04:39:49.612Z,85.30
2019-04-12T04:42:19.181Z,85.00
2019-04-12T04:44:48.862Z,84.80
2019-04-12T04:47:37.503Z,84.50
2019-04-12T04:50:08.002Z,84.30
2019-04-12T04:52:37.603Z,83.60
2019-04-12T04:55:07.619Z,83.80
2019-04-12T04:57:37.143Z,83.30
2019-04-12T05:00:09.410Z,83.50
2019-04-12T05:02:39.504Z,83.30
2019-04-12T05:05:09.525Z,83.20
2019-04-12T05:07:38.947Z,83.60
2019-04-12T05:10:08.539Z,83.70
2019-04-12T05:12:37.927Z,84.00
2019-04-12T05:15:08.394Z,84.10
2019-04-12T05:17:39.867Z,83.10
2019-04-12T05:20:09.519Z,83.40
2019-04-12T05:22:58.204Z,83.80
2019-04-12T05:25:28.066Z,84.20
2019-04-12T05:28:18.223Z,84.40
2019-04-12T05:30:47.855Z,85.10
2019-04-12T05:33:17.252Z,86.50
2019-04-12T05:35:46.916Z,87.70
2019-04-12T05:38:16.147Z,89.00
2019-04-12T05:48:17.013Z,90.40
2019-04-12T05:51:01.442Z,90.90
2019-04-12T05:53:31.321Z,91.10
2019-04-12T05:59:31.949Z,91.60
2019-04-12T06:02:02.837Z,92.00
2019-04-12T06:04:32.151Z,92.10
2019-04-12T06:07:03.127Z,92.30
2019-04-12T06:09:32.465Z,92.20
2019-04-12T06:12:02.040Z,92.20
2019-04-12T06:14:31.387Z,92.70
2019-04-12T06:17:02.478Z,92.30
2019-04-12T06:19:32.632Z,92.50
2019-04-12T06:22:09.343Z,93.00
2019-04-12T06:24:39.047Z,93.30
2019-04-12T06:27:12.701Z,93.50
2019-04-12T06:29:44.934Z,93.60
2019-04-12T06:32:13.775Z,93.70
2019-04-12T06:34:43.240Z,93.80
2019-04-12T06:37:12.575Z,93.80
2019-04-12T06:39:42.814Z,94.00
2019-04-12T06:42:12.037Z,94.40
2019-04-12T06:44:42.896Z,94.70
2019-04-12T06:47:14.551Z,94.60
2019-04-12T06:49:44.692Z,94.60
2019-04-12T06:52:47.049Z,94.40
2019-04-12T06:55:23.743Z,94.50
2019-04-12T06:57:55.129Z,94.50
2019-04-12T07:00:37.778Z,94.80
2019-04-12T07:03:23.735Z,94.50
2019-04-12T07:05:52.990Z,94.60
2019-04-12T07:08:22.246Z,94.60
2019-04-12T07:10:51.492Z,94.80
2019-04-12T07:13:20.806Z,95.30
2019-04-12T07:15:50.045Z,95.10
2019-04-12T07:18:19.349Z,94.80
2019-04-12T07:20:49.147Z,94.60
2019-04-12T07:23:19.658Z,94.60
2019-04-12T07:25:48.919Z,95.00
2019-04-12T07:28:18.143Z,94.70
2019-04-12T07:30:56.633Z,94.40
2019-04-12T07:33:18.323Z,94.30
2019-04-12T07:35:48.576Z,94.20
2019-04-12T07:38:37.156Z,94.10
2019-04-12T07:41:06.494Z,94.20
2019-04-12T07:43:35.710Z,94.30
2019-04-12T07:46:04.951Z,94.10
2019-04-12T07:48:34.195Z,93.80
2019-04-12T07:51:09.331Z,94.30
2019-04-12T07:53:40.213Z,94.10
2019-04-12T07:56:11.090Z,93.80
2019-04-12T07:58:41.974Z,93.60
2019-04-12T08:01:14.293Z,93.00
2019-04-12T08:03:50.878Z,93.30
2019-04-12T08:06:24.474Z,93.30
2019-04-12T08:08:53.702Z,93.00
2019-04-12T08:11:22.954Z,93.00
2019-04-12T08:13:52.293Z,92.90
2019-04-12T08:16:21.683Z,92.60
2019-04-12T08:18:50.921Z,92.10
2019-04-12T08:21:20.243Z,91.30
2019-04-12T08:23:49.479Z,91.20
2019-04-12T08:26:18.714Z,90.60
2019-04-12T08:28:47.987Z,90.90
2019-04-12T08:31:17.258Z,91.30
2019-04-12T08:33:46.512Z,91.00
2019-04-12T08:36:17.304Z,90.60
2019-04-12T08:38:46.522Z,91.20
2019-04-12T08:41:17.339Z,91.40
2019-04-12T08:43:46.578Z,91.30
2019-04-12T08:46:18.998Z,91.30
2019-04-12T08:48:48.107Z,91.70
2019-04-12T08:51:22.655Z,92.20
2019-04-12T08:53:48.429Z,92.10
2019-04-12T08:56:17.766Z,91.60
2019-04-12T08:58:47.177Z,91.70
2019-04-12T09:01:16.487Z,92.00
2019-04-12T09:04:05.172Z,92.50
2019-04-12T09:06:34.429Z,92.80
2019-04-12T09:09:15.836Z,92.40
2019-04-12T09:11:45.214Z,91.40
2019-04-12T09:14:14.819Z,91.40
2019-04-12T09:16:44.151Z,91.50
2019-04-12T09:19:20.554Z,91.20
2019-04-12T09:22:03.715Z,90.90
2019-04-12T09:24:40.988Z,90.40
2019-04-12T09:27:10.332Z,90.70
2019-04-12T09:29:39.809Z,91.20
2019-04-12T09:32:09.060Z,91.80
2019-04-12T09:34:38.335Z,91.50
2019-04-12T09:37:07.767Z,91.70
2019-04-12T09:39:37.014Z,91.10
2019-04-12T09:42:06.268Z,91.40
2019-04-12T09:44:35.510Z,91.70
2019-04-12T09:47:04.810Z,91.90
2019-04-12T09:50:16.924Z,91.60
2019-04-12T09:53:04.502Z,92.10
2019-04-12T09:55:33.824Z,96.00
2019-04-12T09:58:03.072Z,99.60
2019-04-12T10:00:35.454Z,99.90
2019-04-12T10:03:04.865Z,99.90
2019-04-12T10:05:34.107Z,99.90
2019-04-12T10:08:03.487Z,99.90
2019-04-12T10:10:32.906Z,99.90
2019-04-12T10:13:57.227Z,99.90
2019-04-12T10:16:26.440Z,99.90
2019-04-12T10:18:55.695Z,99.90
2019-04-12T10:21:25.063Z,99.90
2019-04-12T10:23:54.390Z,99.90
2019-04-12T10:26:23.721Z,99.90
2019-04-12T10:28:52.975Z,99.90
2019-04-12T10:31:22.321Z,99.90
2019-04-12T10:33:51.559Z,99.90
2019-04-12T10:36:20.792Z,99.90
2019-04-12T10:38:52.366Z,99.90
2019-04-12T10:41:21.619Z,99.90
2019-04-12T10:43:52.518Z,99.90
2019-04-12T10:46:23.422Z,99.90
2019-04-12T10:48:57.311Z,99.90
2019-04-12T10:51:31.162Z,99.90
2019-04-12T10:54:05.050Z,99.90
2019-04-12T10:56:34.383Z,99.90
2019-04-12T10:59:03.716Z,99.90
2019-04-12T11:01:33.011Z,99.90
2019-04-12T11:04:02.246Z,99.90
2019-04-12T11:06:31.501Z,99.90
2019-04-12T11:09:00.787Z,99.90
2019-04-12T11:11:42.223Z,99.90
2019-04-12T11:14:11.479Z,99.90
2019-04-12T11:16:42.187Z,99.90
2019-04-12T11:19:11.410Z,99.90
2019-04-12T11:21:52.879Z,99.90
2019-04-12T11:24:22.102Z,99.90
2019-04-12T11:26:51.360Z,99.90
2019-04-12T11:29:20.673Z,99.90
2019-04-12T11:31:49.949Z,99.90
2019-04-12T11:34:19.245Z,99.90
2019-04-12T11:36:48.513Z,99.90
2019-04-12T11:39:17.812Z,99.20
2019-04-12T11:41:47.123Z,99.90
2019-04-12T11:44:16.487Z,99.90
2019-04-12T11:46:45.767Z,99.20
2019-04-12T11:49:15.256Z,99.90
2019-04-12T11:55:31.309Z,98.20
2019-04-12T11:58:00.567Z,98.70
2019-04-12T12:00:34.692Z,97.00
2019-04-12T12:03:17.987Z,95.50
2019-04-12T12:08:58.944Z,97.00
2019-04-12T12:11:29.944Z,97.50
2019-04-12T12:14:06.644Z,98.10
2019-04-12T12:19:59.119Z,96.00
2019-04-12T12:22:28.375Z,96.40
2019-04-12T12:24:57.658Z,96.50
2019-04-12T12:27:27.202Z,96.50
2019-04-12T12:29:59.388Z,96.40
2019-04-12T12:32:27.595Z,96.00
2019-04-12T12:34:56.914Z,96.00
2019-04-12T12:37:26.181Z,96.00
2019-04-12T12:39:55.428Z,95.60
2019-04-12T12:42:24.716Z,93.80
2019-04-12T12:44:54.017Z,94.40
2019-04-12T12:47:23.279Z,95.90
2019-04-12T12:49:52.515Z,95.40
2019-04-12T12:52:22.126Z,95.60
2019-04-12T12:54:51.486Z,95.70
2019-04-12T12:57:20.714Z,96.60
2019-04-12T13:00:09.556Z,96.80
2019-04-12T13:02:38.795Z,96.20
2019-04-12T13:05:08.113Z,96.50
2019-04-12T13:07:37.351Z,97.40
2019-04-12T13:10:07.553Z,97.20
2019-04-12T13:12:36.794Z,97.30
2019-04-12T13:15:06.868Z,96.90
2019-04-12T13:17:39.193Z,96.30
2019-04-12T13:20:08.748Z,97.10
2019-04-12T13:22:37.950Z,97.40
2019-04-12T13:25:07.478Z,99.50
2019-04-12T13:27:36.714Z,99.90
2019-04-12T13:30:15.384Z,99.70
2019-04-12T13:32:55.245Z,99.90
2019-04-12T13:35:26.187Z,99.90
2019-04-12T13:38:13.387Z,97.80
2019-04-12T13:40:44.386Z,97.80
2019-04-12T13:43:14.642Z,97.80
2019-04-12T13:45:44.270Z,97.00
2019-04-12T13:48:32.907Z,97.20
2019-04-12T13:51:02.287Z,98.20
2019-04-12T13:53:31.598Z,98.50
2019-04-12T13:56:04.113Z,99.10
2019-04-12T13:58:33.394Z,99.10
2019-04-12T14:01:03.155Z,99.20
2019-04-12T14:03:32.440Z,98.10
2019-04-12T14:06:01.747Z,98.40
2019-04-12T14:08:57.840Z,97.50
2019-04-12T14:11:27.095Z,96.90
2019-04-12T14:13:56.347Z,96.80
2019-04-12T14:16:25.654Z,96.00
2019-04-12T14:18:54.929Z,95.60
2019-04-12T14:21:24.166Z,95.60
2019-04-12T14:23:53.442Z,95.50
2019-04-12T14:26:22.755Z,95.20
2019-04-12T14:28:52.071Z,95.40
2019-04-12T14:31:31.799Z,95.90
2019-04-12T14:34:02.696Z,96.10
2019-04-12T14:36:51.574Z,96.50
2019-04-12T14:39:20.822Z,95.50
2019-04-12T14:41:50.227Z,94.80
2019-04-12T14:44:21.313Z,94.30
2019-04-12T14:46:58.127Z,94.60
2019-04-12T14:49:27.375Z,94.40
2019-04-12T14:51:57.625Z,94.00
2019-04-12T14:54:27.055Z,94.10
2019-04-12T14:56:56.347Z,93.80
2019-04-12T14:59:25.602Z,94.00
2019-04-12T15:01:54.856Z,94.00
2019-04-12T15:04:24.159Z,94.40
2019-04-12T15:06:53.490Z,94.40
2019-04-12T15:09:22.807Z,94.50
2019-04-12T15:11:52.092Z,94.90
2019-04-12T15:14:21.474Z,95.00
2019-04-12T15:16:50.991Z,95.80
2019-04-12T15:19:20.263Z,96.50
2019-04-12T15:21:49.612Z,96.90
2019-04-12T15:24:18.866Z,96.80
2019-04-12T15:26:48.280Z,96.30
2019-04-12T15:29:17.673Z,96.20
2019-04-12T15:31:46.938Z,96.40
2019-04-12T15:34:16.211Z,96.60
2019-04-12T15:36:45.467Z,96.50
2019-04-12T15:39:16.338Z,97.00
2019-04-12T15:41:45.648Z,96.20
2019-04-12T15:44:15.007Z,95.60
2019-04-12T15:46:44.357Z,95.40
2019-04-12T15:49:13.853Z,94.80
2019-04-12T15:51:43.097Z,94.60
2019-04-12T15:54:12.360Z,94.10
2019-04-12T15:56:41.836Z,93.20
2019-04-12T15:59:11.079Z,93.60
2019-04-12T16:01:40.414Z,93.40
2019-04-12T16:04:09.943Z,93.40
2019-04-12T16:06:39.488Z,93.00
2019-04-12T16:09:16.320Z,93.30
2019-04-12T16:12:11.530Z,93.30
2019-04-12T16:15:06.546Z,93.00
2019-04-12T16:18:05.511Z,93.50
2019-04-12T16:20:34.883Z,93.20
2019-04-12T16:23:04.410Z,93.40
2019-04-12T16:25:34.172Z,94.80
2019-04-12T16:28:13.824Z,96.80
2019-04-12T16:30:57.634Z,97.50
2019-04-12T16:33:34.467Z,98.50
2019-04-12T16:36:20.519Z,98.90
2019-04-12T16:38:49.824Z,99.50
2019-04-12T16:41:19.072Z,99.90
2019-04-12T16:43:48.350Z,99.90
2019-04-12T16:46:17.651Z,99.90
2019-04-12T16:48:50.389Z,99.90
2019-04-12T16:51:19.461Z,99.90
2019-04-12T16:54:08.043Z,99.90
2019-04-12T16:56:37.448Z,99.90
2019-04-12T16:59:06.684Z,99.90
2019-04-12T17:01:39.059Z,99.90
2019-04-12T17:04:08.344Z,99.90
2019-04-12T17:06:37.614Z,99.90
2019-04-12T17:09:07.838Z,99.10
2019-04-12T17:11:37.074Z,98.90
2019-04-12T17:14:06.407Z,99.00
2019-04-12T17:16:38.607Z,98.80
2019-04-12T17:19:08.141Z,98.80
2019-04-12T17:21:37.530Z,98.40
2019-04-12T17:24:06.819Z,98.00
2019-04-12T17:26:36.058Z,98.10
2019-04-12T17:29:05.344Z,98.20
2019-04-12T17:31:48.420Z,98.30
2019-04-12T17:34:07.159Z,98.60
2019-04-12T17:36:36.456Z,98.20
2019-04-12T17:39:07.630Z,98.40
2019-04-12T17:41:36.914Z,98.50
2019-04-12T17:44:06.272Z,98.90
2019-04-12T17:46:35.516Z,98.80
2019-04-12T17:49:06.570Z,98.70
2019-04-12T17:51:39.007Z,98.70
2019-04-12T17:54:21.906Z,99.30
2019-04-12T17:56:51.180Z,99.80
2019-04-12T17:59:20.437Z,99.80
2019-04-12T18:02:02.101Z,99.90
2019-04-12T18:04:30.467Z,99.90
2019-04-12T18:07:19.131Z,99.90
2019-04-12T18:09:48.488Z,99.90
2019-04-12T18:12:17.716Z,99.90
2019-04-12T18:14:46.998Z,99.90
2019-04-12T18:17:16.311Z,99.90
2019-04-12T18:19:45.733Z,99.90
2019-04-12T18:22:34.311Z,99.90
2019-04-12T18:25:05.235Z,99.90
2019-04-12T18:27:34.571Z,99.90
2019-04-12T18:30:05.326Z,99.90
2019-04-12T18:32:34.792Z,99.90
2019-04-12T18:35:06.410Z,99.90
2019-04-12T18:37:36.647Z,99.90
2019-04-12T18:40:09.061Z,99.90
2019-04-12T18:42:38.353Z,99.90
2019-04-12T18:45:08.251Z,99.90
2019-04-12T18:47:40.660Z,99.90
2019-04-12T18:50:10.916Z,99.90
2019-04-12T18:52:40.330Z,99.90
2019-04-12T18:55:10.358Z,99.90
2019-04-12T18:57:39.688Z,99.90
2019-04-12T19:00:10.995Z,99.90
2019-04-12T19:02:40.317Z,99.90
2019-04-12T19:05:09.743Z,99.90
2019-04-12T19:07:39.019Z,99.90
2019-04-12T19:10:09.581Z,99.90
2019-04-12T19:12:39.091Z,99.90
2019-04-12T19:15:17.584Z,99.90
2019-04-12T19:17:46.829Z,99.90
2019-04-12T19:20:18.876Z,99.90
2019-04-12T19:22:50.923Z,99.90
2019-04-12T19:25:20.285Z,99.90
2019-04-12T19:27:49.591Z,99.90
2019-04-12T19:30:20.634Z,99.90
2019-04-12T19:32:57.863Z,99.90
2019-04-12T19:35:45.260Z,99.90
2019-04-12T19:38:18.752Z,99.90
2019-04-12T19:41:07.514Z,99.90
2019-04-12T19:43:56.205Z,99.90
2019-04-12T19:46:25.470Z,99.90
2019-04-12T19:48:54.751Z,99.90
2019-04-12T19:51:24.070Z,99.90
2019-04-12T19:53:56.450Z,99.90
2019-04-12T19:56:32.117Z,99.90
2019-04-12T19:59:01.421Z,99.90
2019-04-12T20:01:30.802Z,99.90
2019-04-12T20:04:00.143Z,99.90
2019-04-12T20:06:29.512Z,99.90
2019-04-12T20:08:58.767Z,99.90
2019-04-12T20:11:28.054Z,99.90
2019-04-12T20:13:57.296Z,99.90
2019-04-12T20:16:26.570Z,99.90
2019-04-12T20:18:57.427Z,99.90
2019-04-12T20:21:40.328Z,99.90
2019-04-12T20:24:09.665Z,99.90
2019-04-12T20:26:38.988Z,99.90
2019-04-12T20:29:08.255Z,99.90
2019-04-12T20:31:37.572Z,99.90
2019-04-12T20:34:06.905Z,99.90
2019-04-12T20:36:36.206Z,99.90
2019-04-12T20:39:09.653Z,99.90
2019-04-12T20:41:38.923Z,99.90
2019-04-12T20:44:08.192Z,99.90
2019-04-12T20:46:37.591Z,99.90
2019-04-12T20:49:06.886Z,99.90
2019-04-12T20:51:36.179Z,99.90
2019-04-12T20:54:05.679Z,99.90
2019-04-12T20:56:34.994Z,99.90
2019-04-12T20:59:04.378Z,99.90
2019-04-12T21:01:52.971Z,99.90
2019-04-12T21:04:22.248Z,99.90
2019-04-12T21:06:51.609Z,99.90
2019-04-12T21:09:20.859Z,99.90
2019-04-12T21:12:09.452Z,99.90
2019-04-12T21:14:38.779Z,99.90
2019-04-12T21:17:08.068Z,99.90
2019-04-12T21:19:37.391Z,99.90
2019-04-12T21:22:06.662Z,99.90
2019-04-12T21:24:35.961Z,99.90
2019-04-12T21:27:05.327Z,99.90
2019-04-12T21:29:34.630Z,99.90
2019-04-12T21:32:03.970Z,99.90
2019-04-12T21:34:33.294Z,99.90
2019-04-12T21:37:02.522Z,99.90
2019-04-12T21:39:31.821Z,99.90
2019-04-12T21:42:01.231Z,99.90
2019-04-12T21:44:30.499Z,99.90
2019-04-12T21:46:59.753Z,99.90
2019-04-12T21:49:29.024Z,99.90
2019-04-12T21:51:58.310Z,99.90
2019-04-12T21:54:28.747Z,99.90
2019-04-12T21:56:58.002Z,99.90
2019-04-12T21:59:30.322Z,99.90
2019-04-12T22:01:59.769Z,99.90
2019-04-12T22:04:29.594Z,99.90
2019-04-12T22:06:58.863Z,99.90
2019-04-12T22:09:28.133Z,99.90
2019-04-12T22:11:57.430Z,99.90
2019-04-12T22:14:26.663Z,99.90
2019-04-12T22:16:57.472Z,99.90
2019-04-12T22:19:46.083Z,99.90
2019-04-12T22:22:15.415Z,99.90
2019-04-12T22:24:44.676Z,99.90
2019-04-12T22:27:14.019Z,99.90
2019-04-12T22:29:43.276Z,99.90
2019-04-12T22:32:20.233Z,99.90
2019-04-12T22:34:49.523Z,99.90
2019-04-12T22:37:18.790Z,99.90
2019-04-12T22:39:48.184Z,99.90
2019-04-12T22:42:17.479Z,99.90
2019-04-12T22:44:46.723Z,99.90
2019-04-12T22:47:16.137Z,99.90
2019-04-12T22:49:45.391Z,99.90
2019-04-12T22:52:14.701Z,99.90
2019-04-12T22:54:44.070Z,99.90
2019-04-12T22:57:15.333Z,99.90
2019-04-12T23:00:04.434Z,99.90
2019-04-12T23:02:33.743Z,99.90
2019-04-12T23:05:03.142Z,99.90
2019-04-12T23:07:32.410Z,99.90
2019-04-12T23:10:01.733Z,99.90
2019-04-12T23:12:32.362Z,99.90
2019-04-12T23:15:01.753Z,99.90
2019-04-12T23:17:31.024Z,99.90
2019-04-12T23:20:00.301Z,99.90
2019-04-12T23:22:49.007Z,99.90
2019-04-12T23:25:18.270Z,99.90
2019-04-12T23:27:47.519Z,99.90
2019-04-12T23:30:27.965Z,99.90
2019-04-12T23:32:57.212Z,99.90
2019-04-12T23:35:33.656Z,99.90
2019-04-12T23:38:02.917Z,99.90
2019-04-12T23:40:32.199Z,99.90
2019-04-12T23:43:01.662Z,99.90
2019-04-12T23:45:31.017Z,99.90
2019-04-12T23:48:00.291Z,99.90
2019-04-12T23:50:29.594Z,99.90
2019-04-12T23:52:58.866Z,99.90
2019-04-12T23:55:28.134Z,99.90
2019-04-12T23:57:57.416Z,99.90
